Time;durP1;ratioP1;P1;durP2;ratioP2;P2;SDS_P1;SDS_P2;PMS_P1;PMS_P2;Temp;Humidity;BMP_temperature;BMP_pressure;BME280_temperature;BME280_humidity;BME280_pressure;Samples;Min_cycle;Max_cycle;Signal;HPM_P1;HPM_P2
2022/01/23 00:00:18;;;;;;;3.55;3.28;;;;;;;-2.59;54.48;95243.78;5075144;28;20185;-68
2022/01/23 00:02:45;;;;;;;4.25;3.95;;;;;;;-2.58;54.19;95246.22;5074877;28;20193;-68
2022/01/23 00:05:12;;;;;;;4.35;4.03;;;;;;;-2.62;54.30;95241.63;5075176;28;20275;-68
2022/01/23 00:07:42;;;;;;;4.45;4.05;;;;;;;-2.68;54.54;95251.63;5074863;28;20185;-68
2022/01/23 00:10:10;;;;;;;3.85;3.55;;;;;;;-2.65;54.88;95259.19;5074898;28;20227;-67
2022/01/23 00:12:44;;;;;;;3.88;3.58;;;;;;;-2.58;54.73;95267.00;5074810;28;20205;-67
2022/01/23 00:17:55;;;;;;;3.78;3.47;;;;;;;-2.57;54.99;95263.25;5073645;28;20286;-67
2022/01/23 00:20:21;;;;;;;4.10;3.70;;;;;;;-2.56;54.61;95254.88;5073958;28;20201;-67
2022/01/23 00:22:53;;;;;;;4.28;3.88;;;;;;;-2.51;54.55;95256.78;5074806;28;20213;-67
2022/01/23 00:30:50;;;;;;;4.32;3.53;;;;;;;-2.52;55.04;95271.38;5074283;28;20310;-67
2022/01/23 00:33:18;;;;;;;3.92;3.70;;;;;;;-2.52;54.91;95266.78;5074436;28;20270;-67
2022/01/23 00:35:46;;;;;;;3.85;3.55;;;;;;;-2.48;54.97;95272.47;5073531;28;20644;-67
2022/01/23 00:38:15;;;;;;;4.00;3.70;;;;;;;-2.42;54.62;95266.81;5074047;28;20205;-67
2022/01/23 00:40:43;;;;;;;3.63;3.42;;;;;;;-2.38;54.81;95277.88;5073679;28;20201;-67
2022/01/23 00:43:16;;;;;;;3.80;3.50;;;;;;;-2.38;55.07;95272.50;5073676;28;20193;-67
2022/01/23 00:45:46;;;;;;;3.60;3.30;;;;;;;-2.36;55.02;95269.50;5074604;28;20186;-67
2022/01/23 00:48:14;;;;;;;3.80;3.50;;;;;;;-2.31;54.69;95278.44;5074202;28;20267;-67
2022/01/23 00:50:43;;;;;;;3.85;3.55;;;;;;;-2.32;55.06;95286.84;5073265;28;20297;-67
2022/01/23 00:53:11;;;;;;;4.20;3.88;;;;;;;-2.40;54.82;95280.03;5073268;28;20197;-67
2022/01/23 00:55:41;;;;;;;4.30;3.90;;;;;;;-2.45;55.06;95275.44;5075818;28;20185;-68
2022/01/23 00:58:08;;;;;;;4.20;3.90;;;;;;;-2.40;55.60;95277.34;5077306;28;20200;-68
2022/01/23 01:00:35;;;;;;;4.50;4.10;;;;;;;-2.39;55.38;95286.28;5077150;28;20204;-68
2022/01/23 01:03:02;;;;;;;4.65;4.25;;;;;;;-2.35;55.52;95279.25;5077961;28;20181;-68
2022/01/23 01:05:30;;;;;;;4.15;3.85;;;;;;;-2.32;55.52;95271.44;5078240;28;20221;-68
2022/01/23 01:07:58;;;;;;;4.07;3.67;;;;;;;-2.32;55.37;95276.03;5078085;28;20201;-68
2022/01/23 01:10:33;;;;;;;3.95;3.65;;;;;;;-2.33;55.80;95277.88;5111000;28;20197;-68
2022/01/23 01:13:02;;;;;;;3.67;3.38;;;;;;;-2.34;55.71;95276.28;5077696;28;20204;-68
2022/01/23 01:15:55;;;;;;;3.90;3.53;;;;;;;-2.39;55.87;95268.16;5077757;28;20219;-68
2022/01/23 01:32:10;;;;;;;4.40;4.00;;;;;;;-2.49;56.59;95279.75;5076162;28;20213;-67
2022/01/23 01:34:41;;;;;;;4.65;4.25;;;;;;;-2.49;56.96;95276.25;5077556;28;20193;-67
2022/01/23 01:37:09;;;;;;;4.40;4.00;;;;;;;-2.45;56.49;95290.84;5110269;28;20236;-67
2022/01/23 01:39:36;;;;;;;4.57;4.18;;;;;;;-2.47;56.20;95284.88;5076080;28;20624;-67
2022/01/23 01:42:03;;;;;;;4.80;4.40;;;;;;;-2.46;56.68;95276.53;5093309;28;20270;-68
2022/01/23 01:44:32;;;;;;;4.88;4.47;;;;;;;-2.47;56.46;95276.78;5077251;28;20181;-68
2022/01/23 01:46:59;;;;;;;3.97;3.72;;;;;;;-2.48;56.50;95277.84;5075680;28;20193;-68
2022/01/23 01:49:29;;;;;;;4.10;3.78;;;;;;;-2.52;56.60;95277.56;5077174;28;20213;-68
2022/01/23 01:51:58;;;;;;;3.97;3.67;;;;;;;-2.58;56.65;95269.72;5076859;28;20255;-68
2022/01/23 01:54:27;;;;;;;4.30;4.00;;;;;;;-2.61;56.66;95281.88;5076328;28;20200;-68
2022/01/23 01:57:05;;;;;;;4.10;3.80;;;;;;;-2.59;56.67;95274.31;5076654;28;20192;-68
2022/01/23 02:10:38;;;;;;;4.70;4.30;;;;;;;-2.74;56.61;95280.47;5060488;28;20213;-67
2022/01/23 02:13:11;;;;;;;4.50;4.10;;;;;;;-2.76;56.82;95277.25;5075700;28;20213;-67
2022/01/23 02:24:36;;;;;;;4.72;4.32;;;;;;;-2.85;56.63;95280.69;5076530;28;20212;-67
2022/01/23 02:51:58;;;;;;;5.10;4.63;;;;;;;-2.79;55.96;95303.94;5075910;28;20252;-67
2022/01/23 02:54:42;;;;;;;4.50;4.10;;;;;;;-2.85;55.59;95308.50;5076018;28;20253;-67
2022/01/23 02:57:10;;;;;;;4.70;4.30;;;;;;;-2.86;55.59;95306.06;5075461;28;20292;-67
2022/01/23 02:59:39;;;;;;;4.68;4.38;;;;;;;-2.86;55.74;95306.06;5108721;28;20528;-67
2022/01/23 03:02:13;;;;;;;5.05;4.65;;;;;;;-2.86;55.56;95303.38;5075059;28;20189;-67
2022/01/23 03:04:49;;;;;;;5.43;5.03;;;;;;;-2.87;55.42;95302.53;5075704;28;20242;-67
2022/01/23 03:07:36;;;;;;;4.85;4.45;;;;;;;-2.90;55.71;95305.78;5074622;28;20254;-67
2022/01/23 03:10:09;;;;;;;5.45;5.05;;;;;;;-2.92;55.70;95306.03;5108828;28;20531;-67
2022/01/23 03:15:55;;;;;;;4.97;4.57;;;;;;;-3.02;56.18;95319.47;5075513;28;20192;-67
2022/01/23 03:26:39;;;;;;;5.10;4.70;;;;;;;-3.01;55.25;95321.13;5074208;28;20193;-67
2022/01/23 03:29:19;;;;;;;5.18;4.78;;;;;;;-3.02;55.37;95324.88;5075268;28;20196;-67
2022/01/23 03:31:59;;;;;;;4.78;4.47;;;;;;;-3.01;55.54;95314.91;5074358;28;20221;-67
2022/01/23 03:34:27;;;;;;;5.10;4.70;;;;;;;-2.98;55.26;95328.69;5075330;28;20243;-67
2022/01/23 03:36:56;;;;;;;5.68;5.28;;;;;;;-3.04;55.08;95328.91;5073929;28;20201;-67
2022/01/23 03:39:23;;;;;;;5.07;4.60;;;;;;;-3.06;55.73;95326.47;5074313;28;20228;-67
2022/01/23 03:41:52;;;;;;;4.95;4.55;;;;;;;-3.05;55.35;95327.28;5075207;28;20189;-67
2022/01/23 03:44:19;;;;;;;5.03;4.63;;;;;;;-3.15;55.11;95328.84;5074950;28;20193;-67
2022/01/23 03:47:01;;;;;;;4.90;4.60;;;;;;;-3.13;55.50;95317.78;5075205;28;20181;-67
2022/01/23 03:49:31;;;;;;;5.18;4.78;;;;;;;-3.07;55.67;95329.44;5074399;28;20188;-67
2022/01/23 03:52:00;;;;;;;4.88;4.57;;;;;;;-3.13;55.01;95325.06;5074052;28;20291;-67
2022/01/23 03:54:27;;;;;;;5.55;5.05;;;;;;;-3.19;55.56;95329.63;5075120;28;20185;-67
2022/01/23 03:56:57;;;;;;;5.47;4.97;;;;;;;-3.18;55.25;95329.38;5075041;28;20208;-67
2022/01/23 03:59:23;;;;;;;5.20;4.80;;;;;;;-3.15;55.43;95328.03;5074389;28;20189;-67
2022/01/23 04:01:50;;;;;;;5.68;5.15;;;;;;;-3.11;55.23;95333.72;5075315;28;20187;-67
2022/01/23 04:04:32;;;;;;;5.65;5.25;;;;;;;-3.15;54.75;95336.94;5073724;28;20203;-67
2022/01/23 04:06:59;;;;;;;5.20;4.80;;;;;;;-3.17;55.27;95340.97;5073970;28;20296;-68
2022/01/23 04:09:26;;;;;;;4.97;4.57;;;;;;;-3.17;55.09;95340.97;5075198;28;20185;-68
2022/01/23 04:11:53;;;;;;;5.57;5.18;;;;;;;-3.15;55.05;95342.34;5107981;28;20216;-68
2022/01/23 04:14:23;;;;;;;5.30;4.90;;;;;;;-3.08;54.95;95346.72;5107663;28;20258;-68
2022/01/23 04:19:43;;;;;;;5.00;4.50;;;;;;;-3.08;54.95;95346.72;5073663;28;20189;-68
2022/01/23 04:33:28;;;;;;;5.53;5.13;;;;;;;-2.99;54.64;95356.72;5078520;28;20204;-67
2022/01/23 05:00:46;;;;;;;4.97;4.57;;;;;;;-2.94;53.60;95367.56;5077808;28;20173;-67
2022/01/23 05:06:22;;;;;;;4.47;4.18;;;;;;;-2.86;53.46;95376.25;5077709;28;20192;-67
2022/01/23 05:08:49;;;;;;;5.00;4.60;;;;;;;-2.84;52.83;95379.50;5076905;28;20291;-67
2022/01/23 05:11:16;;;;;;;4.45;4.15;;;;;;;-2.85;52.96;95378.69;5077619;28;20513;-67
2022/01/23 05:13:43;;;;;;;4.90;4.50;;;;;;;-2.81;52.94;95377.09;5076844;28;20209;-67
2022/01/23 05:16:10;;;;;;;4.65;4.25;;;;;;;-2.84;52.62;95382.19;5077804;28;20201;-67
2022/01/23 05:18:39;;;;;;;4.63;4.32;;;;;;;-2.85;52.76;95389.47;5076735;28;20610;-67
2022/01/23 05:21:18;;;;;;;4.60;4.20;;;;;;;-2.85;52.66;95380.56;5077683;28;20213;-67
2022/01/23 05:23:45;;;;;;;4.25;3.95;;;;;;;-2.89;52.76;95387.56;5076739;28;20225;-68
2022/01/23 05:26:12;;;;;;;4.47;4.18;;;;;;;-2.92;52.65;95381.59;5076730;28;20189;-68
2022/01/23 05:28:39;;;;;;;5.63;5.20;;;;;;;-2.88;52.55;95386.50;5110205;28;20205;-68
2022/01/23 05:31:05;;;;;;;6.20;5.70;;;;;;;-2.86;52.45;95389.75;5077333;28;20181;-68
2022/01/23 05:33:32;;;;;;;6.18;5.65;;;;;;;-2.85;52.20;95388.69;5076690;28;20217;-68
2022/01/23 05:36:00;;;;;;;5.40;5.00;;;;;;;-2.84;51.99;95385.69;5077503;28;20200;-68
2022/01/23 05:38:27;;;;;;;5.78;5.28;;;;;;;-2.86;52.17;95382.47;5110050;28;20594;-68
2022/01/23 05:40:57;;;;;;;5.40;5.00;;;;;;;-2.85;52.29;95381.38;5076604;28;20219;-68
2022/01/23 05:43:24;;;;;;;5.00;4.60;;;;;;;-2.88;52.14;95383.78;5077507;28;20190;-68
2022/01/23 05:45:52;;;;;;;4.50;4.20;;;;;;;-2.89;51.93;95390.28;5077009;28;20195;-68
2022/01/23 05:48:19;;;;;;;4.85;4.45;;;;;;;-2.93;52.03;95392.69;5077002;28;20250;-68
2022/01/23 05:50:46;;;;;;;4.43;4.10;;;;;;;-3.00;52.56;95397.50;5076137;28;20495;-68
2022/01/23 05:53:15;;;;;;;4.55;4.15;;;;;;;-3.00;52.40;95397.50;5077568;28;20205;-68
2022/01/23 05:55:41;;;;;;;4.85;4.45;;;;;;;-3.01;52.47;95403.97;5109640;28;20197;-68
2022/01/23 05:58:08;;;;;;;4.47;4.07;;;;;;;-3.07;52.34;95400.41;5076089;28;20197;-68
2022/01/23 06:00:35;;;;;;;4.80;4.40;;;;;;;-3.07;52.39;95400.41;5109941;28;20605;-67
2022/01/23 06:03:01;;;;;;;4.70;4.32;;;;;;;-3.09;52.62;95399.84;5076942;28;20181;-68
2022/01/23 06:05:28;;;;;;;4.68;4.32;;;;;;;-3.10;52.50;95403.63;5076962;28;20201;-68
2022/01/23 06:07:55;;;;;;;4.63;4.28;;;;;;;-3.13;52.91;95406.81;5109970;28;20196;-68
2022/01/23 06:10:26;;;;;;;5.05;4.65;;;;;;;-3.15;52.70;95407.09;5075989;28;20243;-67
2022/01/23 06:12:53;;;;;;;4.80;4.50;;;;;;;-3.12;52.56;95408.47;5075695;28;20213;-67
2022/01/23 06:15:20;;;;;;;5.15;4.75;;;;;;;-3.08;52.61;95412.28;5076760;28;20280;-68
2022/01/23 06:17:47;;;;;;;4.40;4.10;;;;;;;-3.05;52.36;95409.06;5076674;28;20185;-68
2022/01/23 06:20:15;;;;;;;4.93;4.53;;;;;;;-3.02;52.36;95421.22;5075716;28;20531;-68
2022/01/23 06:22:45;;;;;;;5.00;4.60;;;;;;;-3.05;52.31;95421.72;5076396;28;20193;-68
2022/01/23 06:25:13;;;;;;;4.72;4.43;;;;;;;-3.02;52.20;95418.50;5109656;28;20224;-68
2022/01/23 06:27:42;;;;;;;4.93;4.57;;;;;;;-3.01;52.37;95426.38;5076452;28;20272;-68
2022/01/23 06:30:10;;;;;;;5.30;4.90;;;;;;;-3.00;52.38;95421.78;5076388;28;20201;-68
2022/01/23 06:32:37;;;;;;;4.88;4.57;;;;;;;-3.03;52.28;95422.28;5076145;28;20213;-67
2022/01/23 06:35:04;;;;;;;5.22;4.82;;;;;;;-3.05;52.52;95424.41;5109586;28;20292;-70
2022/01/23 06:37:31;;;;;;;5.47;5.07;;;;;;;-3.03;52.42;95427.69;5076761;28;20196;-70
2022/01/23 06:39:58;;;;;;;5.50;5.10;;;;;;;-3.04;52.51;95423.38;5075650;28;20431;-69
2022/01/23 06:42:25;;;;;;;4.97;4.63;;;;;;;-3.04;52.27;95420.66;5076259;28;20200;-67
2022/01/23 06:44:53;;;;;;;5.43;5.03;;;;;;;-3.05;52.62;95419.88;5108989;28;20212;-67
2022/01/23 06:47:20;;;;;;;5.85;5.38;;;;;;;-3.01;52.29;95426.38;5075685;28;20579;-69
2022/01/23 06:49:47;;;;;;;5.70;5.30;;;;;;;-3.09;52.59;95417.91;5076124;28;20254;-68
2022/01/23 06:52:14;;;;;;;5.97;5.47;;;;;;;-3.07;52.80;95419.28;5074997;28;20201;-68
2022/01/23 06:54:40;;;;;;;6.05;5.65;;;;;;;-3.00;52.67;95413.69;5075263;28;20239;-66
2022/01/23 06:57:07;;;;;;;6.18;5.68;;;;;;;-2.98;52.97;95412.34;5075748;28;20193;-67
2022/01/23 06:59:34;;;;;;;6.45;5.90;;;;;;;-2.92;53.04;95419.41;5075903;28;20181;-66
2022/01/23 07:02:03;;;;;;;6.00;5.60;;;;;;;-2.90;53.10;95413.75;5075794;28;20197;-67
2022/01/23 07:04:30;;;;;;;6.53;6.03;;;;;;;-2.84;52.67;95414.59;5075813;28;20292;-67
2022/01/23 07:06:57;;;;;;;6.85;6.25;;;;;;;-2.78;52.77;95421.66;5075932;28;20192;-67
2022/01/23 07:09:24;;;;;;;7.18;6.57;;;;;;;-2.72;52.58;95421.44;5075856;28;20191;-67
2022/01/23 07:11:51;;;;;;;7.25;6.65;;;;;;;-2.64;52.44;95414.72;5075662;28;20200;-67
2022/01/23 07:14:18;;;;;;;7.32;6.72;;;;;;;-2.56;52.27;95416.91;5075598;28;20197;-67
2022/01/23 07:16:44;;;;;;;7.47;6.88;;;;;;;-2.50;52.21;95417.78;5108442;28;20204;-65
2022/01/23 07:19:13;;;;;;;7.40;6.80;;;;;;;-2.44;52.16;95412.13;5108106;28;20197;-67
2022/01/23 07:21:40;;;;;;;7.60;7.00;;;;;;;-2.37;51.66;95408.38;5108870;28;20208;-67
2022/01/23 07:24:07;;;;;;;7.85;7.25;;;;;;;-2.35;51.96;95408.94;5075839;28;20200;-67
2022/01/23 07:26:35;;;;;;;7.90;7.30;;;;;;;-2.31;51.78;95410.84;5075413;28;20620;-67
2022/01/23 07:29:03;;;;;;;8.70;7.97;;;;;;;-2.35;51.83;95404.34;5074395;28;20193;-67
2022/01/23 07:31:55;;;;;;;9.45;8.68;;;;;;;-2.47;52.32;95404.56;5074890;28;20220;-67
2022/01/23 07:34:24;;;;;;;9.40;8.68;;;;;;;-2.48;52.65;95408.31;5075050;28;20220;-67
2022/01/23 07:36:50;;;;;;;8.52;7.93;;;;;;;-2.48;52.31;95410.22;5075126;28;20264;-67
2022/01/23 07:39:17;;;;;;;8.63;7.93;;;;;;;-2.47;52.70;95417.22;5074916;28;20185;-66
2022/01/23 07:41:45;;;;;;;8.88;8.18;;;;;;;-2.50;52.71;95413.19;5108082;28;20207;-67
2022/01/23 07:44:12;;;;;;;8.73;8.02;;;;;;;-2.48;52.74;95410.22;5074348;28;20192;-67
2022/01/23 07:46:39;;;;;;;8.48;7.78;;;;;;;-2.46;52.51;95421.56;5074838;28;20185;-67
2022/01/23 07:49:05;;;;;;;8.73;8.02;;;;;;;-2.42;52.46;95422.69;5107679;28;20240;-67
2022/01/23 07:51:34;;;;;;;8.60;7.90;;;;;;;-2.35;52.72;95422.44;5074239;28;20594;-67
2022/01/23 07:54:00;;;;;;;7.80;7.18;;;;;;;-2.27;52.71;95435.44;5075050;28;20219;-67
2022/01/23 07:56:27;;;;;;;7.88;7.28;;;;;;;-2.24;52.65;95433.03;5074758;28;20192;-67
2022/01/23 07:58:54;;;;;;;7.47;6.95;;;;;;;-2.17;52.46;95434.69;5074964;28;20177;-67
2022/01/23 08:01:21;;;;;;;7.97;7.28;;;;;;;-2.19;51.86;95427.63;5108054;28;20207;-67
2022/01/23 08:03:47;;;;;;;8.48;7.78;;;;;;;-2.11;51.94;95426.31;5074722;28;20589;-67
2022/01/23 08:06:15;;;;;;;8.32;7.72;;;;;;;-2.13;52.21;95433.09;5112158;28;20213;-67
2022/01/23 08:08:44;;;;;;;8.70;7.90;;;;;;;-2.12;51.59;95423.88;5078780;28;20519;-67
2022/01/23 08:11:11;;;;;;;8.07;7.47;;;;;;;-2.07;51.66;95435.53;5078913;28;20507;-67
2022/01/23 08:13:38;;;;;;;7.70;7.00;;;;;;;-2.10;51.11;95436.06;5078263;28;20212;-67
2022/01/23 08:16:05;;;;;;;7.63;7.03;;;;;;;-2.19;50.99;95438.44;5078420;28;20197;-67
2022/01/23 08:18:32;;;;;;;7.88;7.28;;;;;;;-2.16;51.84;95426.31;5079326;28;20196;-67
2022/01/23 08:20:59;;;;;;;7.72;7.03;;;;;;;-2.09;51.43;95429.56;5078755;28;20628;-67
2022/01/23 08:23:27;;;;;;;8.15;7.43;;;;;;;-2.02;51.81;95440.16;5077952;28;20244;-67
2022/01/23 08:25:55;;;;;;;7.03;6.43;;;;;;;-1.97;51.40;95435.56;5111994;28;20204;-67
2022/01/23 08:28:22;;;;;;;6.88;6.28;;;;;;;-1.97;50.77;95432.03;5112079;28;20205;-67
2022/01/23 08:30:48;;;;;;;7.20;6.60;;;;;;;-1.96;50.69;95436.41;5111674;28;20197;-67
2022/01/23 08:33:15;;;;;;;6.50;6.00;;;;;;;-2.01;50.30;95429.06;5078618;28;20216;-67
2022/01/23 08:35:45;;;;;;;7.63;6.93;;;;;;;-1.95;50.45;95425.31;5078540;28;20186;-67
2022/01/23 08:38:13;;;;;;;6.97;6.47;;;;;;;-1.85;50.45;95434.50;5078256;28;20217;-67
2022/01/23 08:40:58;;;;;;;6.82;6.28;;;;;;;-1.83;50.33;95429.66;5078453;28;20212;-67
2022/01/23 08:43:26;;;;;;;7.80;7.10;;;;;;;-1.75;49.89;95429.13;5078068;28;20598;-67
2022/01/23 08:45:53;;;;;;;8.18;7.47;;;;;;;-1.77;49.36;95434.81;5077924;28;20193;-66
2022/01/23 08:48:20;;;;;;;8.15;7.55;;;;;;;-1.71;50.18;95432.94;5077926;28;20240;-67
2022/01/23 08:50:47;;;;;;;7.40;6.80;;;;;;;-1.74;49.45;95417.25;5078175;28;20193;-67
2022/01/23 08:53:14;;;;;;;7.53;6.93;;;;;;;-1.72;49.02;95426.72;5111144;28;20672;-67
2022/01/23 08:55:40;;;;;;;8.20;7.50;;;;;;;-1.67;49.11;95434.06;5078247;28;20189;-67
2022/01/23 08:58:07;;;;;;;7.90;7.30;;;;;;;-1.57;49.49;95431.34;5078129;28;20218;-67
2022/01/23 09:00:35;;;;;;;7.38;6.88;;;;;;;-1.54;48.59;95438.94;5077247;28;20193;-67
2022/01/23 09:03:02;;;;;;;7.43;6.82;;;;;;;-1.65;49.01;95431.06;5077672;28;20207;-67
2022/01/23 09:05:29;;;;;;;7.05;6.45;;;;;;;-1.63;49.28;95432.44;5111352;28;20258;-67
2022/01/23 09:07:56;;;;;;;7.82;7.22;;;;;;;-1.59;50.00;95435.41;5077386;28;20215;-67
2022/01/23 09:10:26;;;;;;;9.20;8.30;;;;;;;-1.55;49.25;95442.72;5077943;28;20540;-67
2022/01/23 09:13:09;;;;;;;8.43;7.72;;;;;;;-1.47;49.32;95444.91;5076916;28;20251;-66
2022/01/23 09:15:37;;;;;;;8.90;8.00;;;;;;;-1.55;49.26;95437.31;5076592;28;20221;-66
2022/01/23 09:18:04;;;;;;;8.00;7.32;;;;;;;-1.59;49.31;95436.22;5077512;28;20193;-67
2022/01/23 09:20:31;;;;;;;6.80;6.20;;;;;;;-1.70;49.35;95431.88;5076979;28;20539;-66
2022/01/23 09:22:58;;;;;;;6.65;6.15;;;;;;;-1.65;49.75;95437.28;5077662;28;20216;-66
2022/01/23 09:25:24;;;;;;;7.32;6.72;;;;;;;-1.70;48.94;95426.47;5077552;28;20193;-67
2022/01/23 09:27:52;;;;;;;7.13;6.47;;;;;;;-1.71;49.20;95430.22;5077591;28;20189;-66
2022/01/23 09:30:20;;;;;;;7.78;7.18;;;;;;;-1.59;49.92;95421.91;5077544;28;20209;-66
2022/01/23 09:32:48;;;;;;;7.45;6.95;;;;;;;-1.50;49.46;95426.50;5077608;28;20187;-68
2022/01/23 09:35:15;;;;;;;6.05;5.57;;;;;;;-1.58;48.08;95420.81;5076499;28;20213;-68
2022/01/23 09:37:42;;;;;;;6.50;6.00;;;;;;;-1.55;48.52;95404.84;5077395;28;20605;-68
2022/01/23 09:40:11;;;;;;;7.35;6.75;;;;;;;-1.55;48.49;95412.97;5077156;28;20189;-68
2022/01/23 09:42:43;;;;;;;7.10;6.50;;;;;;;-1.50;48.51;95404.03;5077358;28;20186;-67
2022/01/23 09:45:12;;;;;;;7.00;6.40;;;;;;;-1.47;48.70;95409.72;5076001;28;20196;-67
2022/01/23 09:47:39;;;;;;;6.43;5.93;;;;;;;-1.52;47.94;95412.44;5077551;28;20259;-67
2022/01/23 09:50:10;;;;;;;7.63;6.93;;;;;;;-1.58;48.46;95404.56;5076011;28;20659;-68
2022/01/23 09:52:38;;;;;;;7.00;6.40;;;;;;;-1.55;48.67;95391.31;5075991;28;20196;-68
2022/01/23 09:55:10;;;;;;;6.82;6.22;;;;;;;-1.52;49.56;95401.63;5076159;28;20209;-68
2022/01/23 09:57:38;;;;;;;6.78;6.18;;;;;;;-1.51;48.54;95397.00;5076814;28;20182;-68
2022/01/23 10:00:07;;;;;;;6.05;5.55;;;;;;;-1.56;48.47;95397.81;5076003;28;20292;-68
2022/01/23 10:02:34;;;;;;;7.05;6.45;;;;;;;-1.49;48.56;95395.66;5075825;28;20190;-68
2022/01/23 10:05:01;;;;;;;6.90;6.30;;;;;;;-1.43;48.94;95396.47;5076923;28;20181;-68
2022/01/23 10:07:30;;;;;;;6.50;5.93;;;;;;;-1.33;48.92;95391.06;5076630;28;20605;-68
2022/01/23 10:10:09;;;;;;;6.20;5.70;;;;;;;-1.28;48.38;95385.66;5075906;28;20583;-68
2022/01/23 10:12:39;;;;;;;5.95;5.55;;;;;;;-1.30;47.85;95379.72;5076432;28;20605;-68
2022/01/23 10:15:07;;;;;;;6.30;5.80;;;;;;;-1.24;48.05;95372.38;5075969;28;20307;-68
2022/01/23 10:17:34;;;;;;;5.90;5.40;;;;;;;-1.25;47.73;95365.38;5075166;28;20200;-68
2022/01/23 10:20:01;;;;;;;6.45;5.95;;;;;;;-1.33;47.60;95366.72;5076084;28;20215;-68
2022/01/23 10:22:31;;;;;;;5.63;5.13;;;;;;;-1.35;47.65;95357.25;5075906;28;20259;-68
2022/01/23 10:25:05;;;;;;;5.15;4.75;;;;;;;-1.45;46.98;95358.06;5075555;28;20284;-66
2022/01/23 10:27:51;;;;;;;5.35;4.90;;;;;;;-1.53;47.55;95364.81;5075723;28;20184;-68
2022/01/23 10:30:19;;;;;;;5.53;5.13;;;;;;;-1.51;48.07;95361.84;5076585;28;20196;-67
2022/01/23 10:32:57;;;;;;;6.63;6.03;;;;;;;-1.34;47.95;95356.19;5075685;28;20197;-67
2022/01/23 10:35:23;;;;;;;7.70;7.00;;;;;;;-1.29;48.09;95356.16;5076358;28;20205;-68
2022/01/23 10:37:54;;;;;;;7.00;6.40;;;;;;;-1.36;47.10;95348.31;5076470;28;20620;-68
2022/01/23 10:40:29;;;;;;;6.20;5.60;;;;;;;-1.35;46.17;95341.81;5075642;28;20201;-67
2022/01/23 10:48:38;;;;;;;6.47;5.93;;;;;;;-1.13;46.63;95343.41;5074748;28;20225;-67
2022/01/23 10:51:21;;;;;;;6.07;5.47;;;;;;;-1.04;45.72;95334.50;5076000;28;20197;-68
2022/01/23 10:54:15;;;;;;;6.07;5.50;;;;;;;-1.00;46.06;95332.84;5075965;28;20251;-67
2022/01/23 10:57:03;;;;;;;6.10;5.60;;;;;;;-1.01;45.11;95327.72;5056664;28;20236;-67
2022/01/23 10:59:48;;;;;;;6.15;5.55;;;;;;;-1.11;45.58;95330.44;5075513;28;20182;-67
2022/01/23 11:02:21;;;;;;;6.47;5.88;;;;;;;-1.08;46.21;95333.41;5074961;28;20193;-68
2022/01/23 11:04:57;;;;;;;5.55;5.05;;;;;;;-0.90;45.15;95326.63;5075648;28;20215;-67
2022/01/23 11:07:24;;;;;;;5.82;5.13;;;;;;;-0.76;45.12;95324.16;5074988;28;20192;-67
2022/01/23 11:09:59;;;;;;;5.90;5.40;;;;;;;-0.65;44.75;95328.44;5075023;28;20188;-67
2022/01/23 11:12:45;;;;;;;6.07;5.57;;;;;;;-0.63;44.92;95323.56;5075749;28;20188;-67
2022/01/23 11:18:00;;;;;;;5.50;5.00;;;;;;;-0.53;44.14;95322.72;5075622;28;20189;-66
2022/01/23 11:20:36;;;;;;;5.40;4.90;;;;;;;-0.63;43.53;95326.25;5074365;28;20204;-66
2022/01/23 11:23:14;;;;;;;5.25;4.75;;;;;;;-0.78;44.68;95310.06;5074551;28;20231;-67
2022/01/23 11:25:43;;;;;;;5.45;4.95;;;;;;;-0.73;44.76;95304.63;5074753;28;20197;-67
2022/01/23 11:28:11;;;;;;;4.95;4.55;;;;;;;-0.56;44.12;95307.81;5074302;28;20185;-67
2022/01/23 11:30:40;;;;;;;5.70;5.20;;;;;;;-0.22;44.59;95298.97;5074482;28;20197;-67
2022/01/23 11:33:10;;;;;;;5.50;5.00;;;;;;;-0.07;43.33;95304.34;5074373;28;20193;-67
2022/01/23 11:35:37;;;;;;;5.78;5.28;;;;;;;0.34;43.63;95298.66;5074413;28;20297;-67
2022/01/23 11:38:09;;;;;;;5.63;5.13;;;;;;;0.42;42.54;95298.03;5074358;28;20194;-67
2022/01/23 11:50:34;;;;;;;5.40;4.90;;;;;;;0.43;42.90;95296.94;5074080;28;20601;-67
2022/01/23 11:54:39;;;;;;;5.25;4.82;;;;;;;0.20;43.29;95293.03;5073870;28;20252;-67
2022/01/23 11:57:26;;;;;;;4.65;4.25;;;;;;;0.10;42.77;95287.69;5074753;28;20196;-67
2022/01/23 11:59:59;;;;;;;4.50;4.10;;;;;;;-0.04;43.21;95275.84;5075008;28;20201;-67
2022/01/23 12:02:31;;;;;;;4.65;4.25;;;;;;;-0.17;43.43;95280.00;5074114;28;20197;-67
2022/01/23 12:05:32;;;;;;;4.22;3.85;;;;;;;-0.29;43.89;95274.91;5075064;28;20585;-67
2022/01/23 12:08:19;;;;;;;4.32;3.92;;;;;;;-0.41;44.31;95273.59;5074208;28;20197;-67
2022/01/23 12:11:36;;;;;;;4.00;3.60;;;;;;;-0.42;44.95;95272.00;5074779;28;20235;-67
2022/01/23 12:17:23;;;;;;;4.32;4.03;;;;;;;-0.64;44.25;95262.34;5074584;28;20181;-67
2022/01/23 12:19:55;;;;;;;4.15;3.83;;;;;;;-0.62;44.62;95262.03;5073665;28;20632;-67
2022/01/23 12:22:45;;;;;;;4.13;3.72;;;;;;;-0.57;44.50;95267.47;5074033;28;20223;-67
2022/01/23 12:25:30;;;;;;;5.43;4.93;;;;;;;-0.60;45.14;95266.09;5074890;28;20228;-67
2022/01/23 12:28:20;;;;;;;4.28;3.97;;;;;;;-0.58;45.16;95277.50;5074485;28;20201;-67
2022/01/23 12:30:49;;;;;;;4.30;3.97;;;;;;;-0.69;45.65;95285.91;5073838;28;20189;-67
2022/01/23 12:33:32;;;;;;;4.75;4.35;;;;;;;-0.78;45.15;95274.84;5074093;28;20204;-67
2022/01/23 12:36:07;;;;;;;4.88;4.47;;;;;;;-0.83;45.56;95272.97;5073870;28;20583;-67
2022/01/23 12:38:40;;;;;;;4.82;4.43;;;;;;;-0.93;45.63;95274.91;5074780;28;20195;-67
2022/01/23 12:41:26;;;;;;;4.22;3.83;;;;;;;-0.84;46.14;95281.34;5074729;28;20193;-67
2022/01/23 12:43:56;;;;;;;4.50;4.10;;;;;;;-0.89;45.99;95274.06;5073833;28;20205;-67
2022/01/23 12:46:27;;;;;;;4.95;4.55;;;;;;;-0.93;46.62;95274.91;5074340;28;20250;-67
2022/01/23 12:48:56;;;;;;;4.85;4.45;;;;;;;-0.98;46.68;95273.84;5073039;28;20237;-67
2022/01/23 12:51:37;;;;;;;4.97;4.47;;;;;;;-1.04;47.22;95274.94;5074764;28;20205;-67
2022/01/23 12:54:22;;;;;;;4.45;4.15;;;;;;;-1.13;48.00;95275.75;5076998;28;20211;-67
2022/01/23 12:56:50;;;;;;;4.22;3.92;;;;;;;-1.14;47.20;95283.06;5078279;28;20188;-67
2022/01/23 12:59:24;;;;;;;4.57;4.18;;;;;;;-1.12;47.81;95274.69;5077879;28;20250;-67
2022/01/23 13:02:00;;;;;;;4.47;4.07;;;;;;;-1.16;47.68;95279.84;5077624;28;20635;-67
2022/01/23 13:04:34;;;;;;;4.80;4.40;;;;;;;-1.08;47.76;95273.03;5077147;28;20656;-68
2022/01/23 13:07:09;;;;;;;4.60;4.20;;;;;;;-1.05;47.45;95284.13;5076973;28;20609;-67
2022/01/23 13:09:42;;;;;;;4.13;3.83;;;;;;;-0.98;46.80;95281.97;5077672;28;20283;-67
2022/01/23 13:12:13;;;;;;;4.13;3.83;;;;;;;-1.00;46.64;95286.03;5077934;28;20228;-67
2022/01/23 13:14:48;;;;;;;4.30;4.00;;;;;;;-1.05;47.62;95286.03;5076891;28;20209;-67
2022/01/23 13:17:32;;;;;;;4.40;3.90;;;;;;;-1.03;47.67;95286.56;5077817;28;20177;-68
2022/01/23 13:29:03;;;;;;;4.47;4.07;;;;;;;-1.05;47.45;95284.13;5022565;28;20197;-68
2022/01/23 13:31:14;;;;;;;4.63;4.30;;;;;;;-1.06;47.42;95293.31;5077174;28;20222;-68
2022/01/23 13:33:41;;;;;;;4.35;4.00;;;;;;;-1.02;48.19;95277.34;5077420;28;20196;-68
2022/01/23 13:36:11;;;;;;;4.72;4.18;;;;;;;-1.05;48.42;95292.25;5077436;28;20205;-68
2022/01/23 13:38:38;;;;;;;4.28;3.97;;;;;;;-1.05;48.02;95286.84;5077095;28;20192;-68
2022/01/23 13:41:20;;;;;;;4.93;4.10;;;;;;;-1.03;47.68;95290.06;5076527;28;20612;-68
2022/01/23 13:52:41;;;;;;;4.50;4.10;;;;;;;-1.14;48.20;95291.19;5109167;27;20566;-68
2022/01/23 14:00:32;;;;;;;5.85;5.15;;;;;;;-1.16;48.38;95293.38;5088745;28;20196;-68
2022/01/23 14:02:59;;;;;;;4.00;3.70;;;;;;;-1.18;48.29;95284.69;5092426;28;20291;-68
2022/01/23 14:05:29;;;;;;;4.72;4.40;;;;;;;-1.19;48.06;95284.97;5091916;28;20192;-68
2022/01/23 14:08:01;;;;;;;4.28;3.95;;;;;;;-1.22;48.19;95283.63;5091819;28;20195;-68
2022/01/23 14:10:31;;;;;;;4.70;4.30;;;;;;;-1.20;47.66;95278.72;5092423;28;20270;-69
2022/01/23 14:13:06;;;;;;;4.55;4.25;;;;;;;-1.22;48.16;95289.03;5092450;28;20195;-68
2022/01/23 14:15:33;;;;;;;4.65;4.25;;;;;;;-1.26;48.77;95290.69;5092528;28;20202;-68
2022/01/23 14:18:02;;;;;;;4.43;4.03;;;;;;;-1.38;48.04;95290.13;5092538;28;20200;-68
2022/01/23 14:20:29;;;;;;;4.00;3.70;;;;;;;-1.50;48.77;95287.72;5092449;28;20388;-67
2022/01/23 14:22:59;;;;;;;5.18;4.78;;;;;;;-1.47;48.83;95287.97;5091897;28;20623;-67
2022/01/23 14:25:27;;;;;;;4.63;4.22;;;;;;;-1.46;49.72;95299.59;5092532;28;20188;-67
2022/01/23 14:28:07;;;;;;;4.90;4.50;;;;;;;-1.39;49.20;95283.09;5092355;28;20181;-67
2022/01/23 14:30:35;;;;;;;4.70;4.30;;;;;;;-1.40;49.42;95297.72;5091832;28;20272;-68
2022/01/23 14:33:12;;;;;;;4.93;4.53;;;;;;;-1.38;49.81;95307.19;5091053;28;20197;-69
2022/01/23 14:35:39;;;;;;;4.40;4.05;;;;;;;-1.42;49.17;95300.69;5092098;28;20196;-70